Time;durP1;ratioP1;P1;durP2;ratioP2;P2;SDS_P1;SDS_P2;PMS_P1;PMS_P2;Temp;Humidity;BMP_temperature;BMP_pressure;BME280_temperature;BME280_humidity;BME280_pressure;Samples;Min_cycle;Max_cycle;Signal;HPM_P1;HPM_P2
2022/01/22 00:00:31;;;;;;;10.77;1.52;;;7.00;99.90;;;;;;4903954;29;20146;-74
2022/01/22 00:02:57;;;;;;;6.30;1.10;;;6.80;99.90;;;;;;4903562;29;20056;-73
2022/01/22 00:05:23;;;;;;;9.63;1.13;;;6.70;99.90;;;;;;4920362;29;20052;-79
2022/01/22 00:07:50;;;;;;;6.88;1.65;;;6.90;99.90;;;;;;4919223;29;20048;-72
2022/01/22 00:10:19;;;;;;;6.43;0.90;;;7.00;99.90;;;;;;4903542;29;20131;-71
2022/01/22 00:15:19;;;;;;;8.10;1.10;;;6.80;99.90;;;;;;4920404;29;20560;-71
2022/01/22 00:17:47;;;;;;;8.05;0.93;;;7.30;99.90;;;;;;4920455;29;20448;-70
2022/01/22 00:20:15;;;;;;;8.40;1.15;;;7.10;99.90;;;;;;4920016;29;20449;-73
2022/01/22 00:22:42;;;;;;;6.07;0.90;;;6.70;99.90;;;;;;4919950;29;20056;-72
2022/01/22 00:25:09;;;;;;;6.38;0.90;;;7.60;99.90;;;;;;4903017;29;20059;-72
2022/01/22 00:27:36;;;;;;;13.15;1.30;;;6.90;99.90;;;;;;4903360;29;20154;-72
2022/01/22 00:30:04;;;;;;;6.13;1.23;;;7.20;99.90;;;;;;4902977;29;20091;-72
2022/01/22 00:32:30;;;;;;;6.63;0.93;;;6.60;99.90;;;;;;4903144;29;20052;-73
2022/01/22 00:34:55;;;;;;;7.82;1.40;;;6.50;99.90;;;;;;4903145;29;20055;-73
2022/01/22 00:37:21;;;;;;;10.93;1.40;;;7.10;99.90;;;;;;4902731;29;20064;-80
2022/01/22 00:39:47;;;;;;;6.63;1.13;;;7.00;99.90;;;;;;4919218;29;20059;-73
2022/01/22 00:42:15;;;;;;;9.98;1.05;;;6.80;99.90;;;;;;4918518;29;20056;-72
2022/01/22 00:44:42;;;;;;;7.85;0.90;;;6.80;99.90;;;;;;4902826;29;20571;-73
2022/01/22 00:47:08;;;;;;;8.88;1.30;;;6.70;99.90;;;;;;4919642;29;20044;-73
2022/01/22 00:49:35;;;;;;;6.03;0.90;;;6.90;99.90;;;;;;4919750;29;20476;-72
2022/01/22 00:52:01;;;;;;;6.45;0.70;;;7.10;99.90;;;;;;4919490;29;20111;-72
2022/01/22 00:54:27;;;;;;;4.97;0.60;;;6.80;99.90;;;;;;4902236;29;20060;-79
2022/01/22 00:56:53;;;;;;;5.38;0.65;;;6.80;99.90;;;;;;4902829;29;20048;-73
2022/01/22 00:59:19;;;;;;;2.28;0.55;;;7.10;99.90;;;;;;4918193;29;20047;-73
2022/01/22 01:01:44;;;;;;;2.13;0.50;;;6.80;99.90;;;;;;4919438;29;20130;-73
2022/01/22 01:04:11;;;;;;;2.05;0.47;;;6.80;99.90;;;;;;4919500;29;20133;-74
2022/01/22 01:06:38;;;;;;;1.15;0.50;;;6.70;99.90;;;;;;4902464;29;20067;-74
2022/01/22 01:09:07;;;;;;;2.40;0.45;;;6.70;99.90;;;;;;4901499;29;20396;-72
2022/01/22 01:11:36;;;;;;;3.47;0.40;;;6.70;99.90;;;;;;4902558;29;20052;-76
2022/01/22 01:14:05;;;;;;;2.08;0.38;;;6.60;99.90;;;;;;4902514;29;20515;-74
2022/01/22 01:35:27;;;;;;;2.17;0.40;;;6.90;99.90;;;;;;4899079;29;20055;-72
2022/01/22 01:37:55;;;;;;;3.50;0.40;;;6.90;99.90;;;;;;4899887;29;20091;-72
2022/01/22 01:40:23;;;;;;;2.65;0.40;;;7.20;99.90;;;;;;4900272;29;20057;-73
2022/01/22 01:43:03;;;;;;;8.18;0.80;;;7.00;99.90;;;;;;4899687;29;20053;-73
2022/01/22 01:45:29;;;;;;;6.35;0.80;;;7.10;99.90;;;;;;4912973;29;20052;-74
2022/01/22 01:48:02;;;;;;;3.60;0.73;;;6.80;99.90;;;;;;4914284;29;20044;-73
2022/01/22 01:50:30;;;;;;;5.40;0.60;;;6.80;99.90;;;;;;4899578;29;20050;-72
2022/01/22 01:53:11;;;;;;;7.07;0.77;;;7.40;99.90;;;;;;4898964;29;20048;-75
2022/01/22 01:57:26;;;;;;;4.13;0.80;;;7.10;99.90;;;;;;4898037;29;20127;-73
2022/01/22 01:58:28;;;;;;;5.53;0.70;;;7.20;99.90;;;;;;4893199;29;20413;-72
2022/01/22 02:00:55;;;;;;;3.92;0.80;;;6.80;99.90;;;;;;4898568;29;20048;-73
2022/01/22 02:03:22;;;;;;;5.25;0.73;;;7.90;99.90;;;;;;4882984;29;20119;-73
2022/01/22 02:05:48;;;;;;;6.25;0.80;;;6.80;99.90;;;;;;4898546;29;20052;-73
2022/01/22 02:08:15;;;;;;;5.60;0.88;;;7.00;99.90;;;;;;4898311;29;20131;-73
2022/01/22 02:10:53;;;;;;;3.85;0.80;;;7.20;99.90;;;;;;4899369;29;20060;-72
2022/01/22 02:13:44;;;;;;;3.85;0.80;;;7.20;99.90;;;;;;4898182;29;20151;-76
2022/01/22 02:24:53;;;;;;;4.78;0.60;;;6.80;99.90;;;;;;4898518;29;20060;-73
2022/01/22 02:27:19;;;;;;;1.73;0.82;;;6.80;99.90;;;;;;4899022;29;20134;-74
2022/01/22 02:29:45;;;;;;;5.68;0.70;;;6.70;99.90;;;;;;4913261;29;20060;-74
2022/01/22 02:35:16;;;;;;;4.82;0.85;;;7.10;99.90;;;;;;4898939;29;20493;-74
2022/01/22 02:37:48;;;;;;;7.10;0.80;;;6.40;99.90;;;;;;4897887;29;20390;-74
2022/01/22 02:40:23;;;;;;;5.10;0.82;;;6.90;99.90;;;;;;4897890;29;20128;-74
2022/01/22 02:42:48;;;;;;;4.97;0.85;;;6.70;99.90;;;;;;4897957;29;20136;-73
2022/01/22 02:45:18;;;;;;;5.38;0.98;;;7.00;99.90;;;;;;4898930;29;20135;-77
2022/01/22 02:47:44;;;;;;;3.28;0.60;;;7.00;99.90;;;;;;4912711;29;20048;-75
2022/01/22 02:50:11;;;;;;;3.80;0.70;;;6.70;99.90;;;;;;4897764;29;20056;-73
2022/01/22 02:52:37;;;;;;;3.20;0.60;;;6.60;99.90;;;;;;4897579;29;20088;-74
2022/01/22 02:55:07;;;;;;;4.15;0.57;;;6.60;99.90;;;;;;4896940;29;20095;-74
2022/01/22 02:57:34;;;;;;;4.50;0.50;;;6.70;99.90;;;;;;4898948;29;20103;-74
2022/01/22 03:00:00;;;;;;;2.40;0.30;;;6.90;99.90;;;;;;4897348;29;20561;-73
2022/01/22 03:02:27;;;;;;;1.98;0.50;;;6.90;99.90;;;;;;4897846;29;20057;-74
2022/01/22 03:04:53;;;;;;;7.35;0.52;;;6.70;99.90;;;;;;4898467;29;20056;-74
2022/01/22 03:07:19;;;;;;;2.80;0.35;;;6.50;99.90;;;;;;4898427;29;20561;-74
2022/01/22 03:09:47;;;;;;;3.67;0.55;;;6.90;99.90;;;;;;4897297;29;20052;-75
2022/01/22 03:12:54;;;;;;;4.88;0.40;;;7.00;99.90;;;;;;4897473;29;20052;-75
2022/01/22 03:20:36;;;;;;;5.38;1.00;;;6.70;99.90;;;;;;4898618;29;20135;-72
2022/01/22 03:28:40;;;;;;;4.43;0.50;;;7.10;99.90;;;;;;4897275;29;20056;-74
2022/01/22 03:31:05;;;;;;;4.68;0.50;;;6.90;99.90;;;;;;4897344;29;20144;-74
2022/01/22 03:33:31;;;;;;;4.28;0.70;;;6.90;99.90;;;;;;4902159;29;20135;-73
2022/01/22 03:35:57;;;;;;;2.15;0.52;;;6.70;99.90;;;;;;4902020;29;20560;-73
2022/01/22 03:38:24;;;;;;;5.22;0.60;;;6.90;99.90;;;;;;4885568;29;20064;-74
2022/01/22 03:40:50;;;;;;;5.20;0.52;;;6.60;99.90;;;;;;4901965;29;20130;-76
2022/01/22 03:43:17;;;;;;;5.85;0.60;;;6.90;99.90;;;;;;4901155;29;20056;-74
2022/01/22 03:45:43;;;;;;;4.72;0.52;;;7.30;99.90;;;;;;4900933;29;20485;-74
2022/01/22 03:48:09;;;;;;;2.83;0.40;;;7.20;99.90;;;;;;4900902;29;20051;-73
2022/01/22 03:50:34;;;;;;;3.88;0.60;;;6.80;99.90;;;;;;4901992;29;20049;-74
2022/01/22 03:53:00;;;;;;;4.00;0.65;;;6.40;99.90;;;;;;4900895;29;20052;-74
2022/01/22 03:56:09;;;;;;;5.38;0.52;;;7.00;99.90;;;;;;4900216;29;20048;-74
2022/01/22 03:58:14;;;;;;;3.78;0.80;;;6.80;99.90;;;;;;4897938;29;20563;-73
2022/01/22 04:00:40;;;;;;;5.28;0.80;;;6.70;99.90;;;;;;4900499;29;20041;-74
2022/01/22 04:05:34;;;;;;;4.97;1.00;;;6.40;99.90;;;;;;4901502;29;20052;-74
2022/01/22 04:10:31;;;;;;;6.05;0.93;;;6.70;99.90;;;;;;4900663;29;20071;-74
2022/01/22 04:13:05;;;;;;;7.50;0.82;;;6.60;99.90;;;;;;4901457;29;20052;-74
2022/01/22 04:15:34;;;;;;;5.25;0.70;;;6.70;99.90;;;;;;4900697;29;20544;-74
2022/01/22 04:28:53;;;;;;;3.40;0.57;;;6.60;99.90;;;;;;4902250;29;20412;-73
2022/01/22 04:31:19;;;;;;;1.90;0.50;;;6.60;99.90;;;;;;4919124;29;20127;-74
2022/01/22 04:33:46;;;;;;;5.03;0.80;;;6.80;99.90;;;;;;4920113;29;20047;-74
2022/01/22 04:36:11;;;;;;;3.15;0.55;;;6.40;99.90;;;;;;4919959;29;20080;-73
2022/01/22 04:38:38;;;;;;;4.03;0.75;;;6.50;99.90;;;;;;4920113;29;20456;-73
2022/01/22 04:41:05;;;;;;;6.22;0.80;;;6.90;99.90;;;;;;4903141;29;20056;-74
2022/01/22 04:43:33;;;;;;;3.92;0.77;;;6.80;99.90;;;;;;4902667;29;20130;-73
2022/01/22 04:48:48;;;;;;;7.38;0.98;;;7.20;99.90;;;;;;4919687;29;20515;-73
2022/01/22 04:56:42;;;;;;;2.28;0.40;;;6.70;99.90;;;;;;4918106;29;20048;-73
2022/01/22 04:59:08;;;;;;;3.72;0.40;;;7.30;99.90;;;;;;4919452;29;20127;-73
2022/01/22 05:01:34;;;;;;;3.08;0.40;;;7.00;99.90;;;;;;4918558;29;20108;-74
2022/01/22 05:04:00;;;;;;;4.70;0.85;;;7.10;99.90;;;;;;4919484;29;20538;-72
2022/01/22 05:06:26;;;;;;;3.38;0.40;;;6.40;99.90;;;;;;4919232;29;20083;-72
2022/01/22 05:08:53;;;;;;;7.00;0.50;;;6.90;99.90;;;;;;4918398;29;20052;-72
2022/01/22 05:11:19;;;;;;;2.55;0.40;;;6.70;99.90;;;;;;4902646;29;20059;-72
2022/01/22 05:13:46;;;;;;;3.28;0.40;;;6.60;99.90;;;;;;4918332;29;20404;-73
2022/01/22 05:16:12;;;;;;;5.28;0.40;;;6.30;99.90;;;;;;4902624;29;20050;-73
2022/01/22 05:18:47;;;;;;;4.13;0.40;;;6.70;99.90;;;;;;4919263;29;20107;-73
2022/01/22 05:21:15;;;;;;;2.20;0.68;;;6.50;99.90;;;;;;4919464;29;20047;-73
2022/01/22 05:23:42;;;;;;;4.82;0.50;;;6.90;99.90;;;;;;4919211;29;20508;-72
2022/01/22 05:26:24;;;;;;;8.23;0.63;;;6.80;99.90;;;;;;4918575;29;20048;-72
2022/01/22 05:29:57;;;;;;;4.50;0.30;;;7.00;99.90;;;;;;4902233;29;20055;-72
2022/01/22 05:39:24;;;;;;;3.30;0.40;;;6.50;99.90;;;;;;4918896;29;20135;-72
2022/01/22 05:41:51;;;;;;;3.63;0.40;;;6.50;99.90;;;;;;4901929;29;20108;-72
2022/01/22 05:44:18;;;;;;;5.82;0.60;;;6.70;99.90;;;;;;4918814;29;20134;-72
2022/01/22 05:46:43;;;;;;;3.80;0.60;;;7.00;99.90;;;;;;4901832;29;20520;-73
2022/01/22 05:49:09;;;;;;;2.80;0.50;;;6.50;99.90;;;;;;4918644;29;20048;-72
2022/01/22 05:51:38;;;;;;;3.58;0.40;;;6.50;99.90;;;;;;4918778;29;20052;-73
2022/01/22 05:59:47;;;;;;;5.03;0.50;;;6.50;99.90;;;;;;4901524;29;20062;-72
2022/01/22 06:02:14;;;;;;;3.40;0.65;;;6.60;99.90;;;;;;4901711;29;20048;-73
2022/01/22 06:04:40;;;;;;;2.72;0.43;;;6.50;99.90;;;;;;4901536;29;20060;-73
2022/01/22 06:07:08;;;;;;;3.65;0.70;;;6.80;99.90;;;;;;4918631;29;20048;-73
2022/01/22 06:09:37;;;;;;;3.97;0.45;;;6.90;99.90;;;;;;4918286;29;20087;-73
2022/01/22 06:14:32;;;;;;;3.72;0.60;;;6.60;99.90;;;;;;4901491;29;20071;-73
2022/01/22 06:16:58;;;;;;;2.90;0.60;;;7.00;99.90;;;;;;4918138;29;20202;-73
2022/01/22 06:19:24;;;;;;;2.88;0.70;;;6.60;99.90;;;;;;4900904;29;20586;-73
2022/01/22 06:21:51;;;;;;;2.55;0.50;;;7.00;99.90;;;;;;4901376;29;20043;-73
2022/01/22 06:24:18;;;;;;;5.00;0.50;;;7.00;99.90;;;;;;4917002;29;20059;-73
2022/01/22 06:26:45;;;;;;;1.15;0.50;;;7.20;99.90;;;;;;4900489;29;20187;-73
2022/01/22 06:29:11;;;;;;;3.00;0.60;;;6.80;99.90;;;;;;4917260;29;20501;-72
2022/01/22 06:31:37;;;;;;;6.60;0.77;;;6.60;99.90;;;;;;4917691;29;20063;-72
2022/01/22 06:34:04;;;;;;;3.22;0.77;;;6.90;99.90;;;;;;4917688;29;20047;-73
2022/01/22 06:36:31;;;;;;;6.28;0.77;;;6.90;99.90;;;;;;4917795;29;20108;-72
2022/01/22 06:39:09;;;;;;;5.05;0.95;;;6.80;99.90;;;;;;4917514;29;20062;-72
2022/01/22 06:41:44;;;;;;;5.60;0.70;;;7.00;99.90;;;;;;4885427;29;20488;-72
2022/01/22 06:44:25;;;;;;;4.15;0.77;;;7.00;99.90;;;;;;4917505;29;20087;-71
2022/01/22 06:46:54;;;;;;;4.43;1.02;;;6.60;99.90;;;;;;4917565;29;20063;-70
2022/01/22 06:49:20;;;;;;;5.15;0.70;;;6.80;99.90;;;;;;4916373;29;20048;-72
2022/01/22 06:51:46;;;;;;;8.05;0.82;;;7.50;99.90;;;;;;4916174;29;20052;-73
2022/01/22 06:54:14;;;;;;;3.92;0.77;;;7.20;99.90;;;;;;4917270;29;20054;-73
2022/01/22 06:56:40;;;;;;;4.80;0.70;;;7.20;99.90;;;;;;4900004;29;20044;-73
2022/01/22 06:59:08;;;;;;;6.10;0.80;;;6.70;99.90;;;;;;4900628;29;20051;-74
2022/01/22 07:01:35;;;;;;;5.70;0.90;;;6.70;99.90;;;;;;4900737;29;20469;-72
2022/01/22 07:04:01;;;;;;;3.78;0.80;;;6.60;99.90;;;;;;4900879;29;20083;-73
2022/01/22 07:06:27;;;;;;;6.63;0.80;;;6.50;99.90;;;;;;4899992;29;20054;-72
2022/01/22 07:08:53;;;;;;;2.28;0.80;;;7.00;99.90;;;;;;4917156;29;20483;-71
2022/01/22 07:11:19;;;;;;;5.63;1.08;;;6.60;99.90;;;;;;4916005;29;20083;-70
2022/01/22 07:13:45;;;;;;;3.58;0.70;;;6.80;99.90;;;;;;4917176;29;20058;-71
2022/01/22 07:16:12;;;;;;;3.28;0.80;;;6.90;99.90;;;;;;4917210;29;20519;-71
2022/01/22 07:18:38;;;;;;;4.97;0.88;;;6.40;99.90;;;;;;4900569;29;20096;-71
2022/01/22 07:21:14;;;;;;;2.63;0.77;;;6.80;99.90;;;;;;4917127;29;20433;-72
2022/01/22 07:26:16;;;;;;;3.83;0.80;;;7.00;99.90;;;;;;4899643;29;20055;-73
2022/01/22 07:28:42;;;;;;;2.75;0.70;;;6.90;99.90;;;;;;4899994;29;20135;-73
2022/01/22 07:31:09;;;;;;;5.38;1.00;;;6.50;99.90;;;;;;4916765;29;20063;-72
2022/01/22 07:33:35;;;;;;;4.15;0.65;;;6.70;99.90;;;;;;4915745;29;20082;-71
2022/01/22 07:36:02;;;;;;;4.20;0.80;;;6.50;99.90;;;;;;4900278;29;20059;-72
2022/01/22 07:38:28;;;;;;;5.72;0.80;;;6.50;99.90;;;;;;4900143;29;20571;-73
2022/01/22 07:40:54;;;;;;;5.57;0.90;;;6.80;99.90;;;;;;4917064;29;20131;-73
2022/01/22 07:43:20;;;;;;;4.30;0.57;;;6.50;99.90;;;;;;4916797;29;20484;-73
2022/01/22 07:45:46;;;;;;;5.47;0.73;;;6.70;99.90;;;;;;4900432;29;20095;-73
2022/01/22 07:48:11;;;;;;;3.25;0.68;;;6.30;99.90;;;;;;4916830;29;20480;-73
2022/01/22 07:50:37;;;;;;;2.55;0.68;;;6.80;99.90;;;;;;4916892;29;20071;-73
2022/01/22 07:53:03;;;;;;;4.35;0.63;;;6.80;99.90;;;;;;4915511;29;20052;-75
2022/01/22 07:55:29;;;;;;;2.08;0.60;;;6.60;99.90;;;;;;4916196;29;20052;-73
2022/01/22 07:57:55;;;;;;;2.30;0.52;;;6.20;99.90;;;;;;4884676;29;20056;-73
2022/01/22 08:00:21;;;;;;;4.13;0.63;;;6.60;99.90;;;;;;4916726;29;20059;-74
2022/01/22 08:02:47;;;;;;;6.15;0.75;;;6.20;99.90;;;;;;4916824;29;20056;-73
2022/01/22 08:05:13;;;;;;;3.60;0.80;;;6.50;99.90;;;;;;4916562;29;20044;-72
2022/01/22 08:07:43;;;;;;;2.88;0.57;;;6.90;99.90;;;;;;4916445;29;20059;-73
2022/01/22 08:10:10;;;;;;;2.78;0.70;;;6.40;99.90;;;;;;4899877;29;20048;-72
2022/01/22 08:12:37;;;;;;;4.82;0.70;;;6.30;99.90;;;;;;4916625;29;20054;-72
2022/01/22 08:15:05;;;;;;;3.65;0.75;;;6.60;99.90;;;;;;4900171;29;20056;-72
2022/01/22 08:17:31;;;;;;;7.35;1.75;;;6.40;99.90;;;;;;4917185;29;20056;-72
2022/01/22 08:19:57;;;;;;;6.55;1.80;;;6.40;99.90;;;;;;4903627;29;20052;-71
2022/01/22 08:22:23;;;;;;;3.45;1.80;;;6.40;99.90;;;;;;4919787;29;20424;-71
2022/01/22 08:24:52;;;;;;;4.85;1.48;;;6.50;99.90;;;;;;4919565;29;20095;-72
2022/01/22 08:27:34;;;;;;;5.55;1.20;;;6.80;99.90;;;;;;4918700;29;20074;-73
2022/01/22 08:30:03;;;;;;;4.00;1.00;;;6.40;99.90;;;;;;4902978;29;20225;-72
2022/01/22 08:37:39;;;;;;;3.40;0.75;;;7.10;99.90;;;;;;4920296;29;20459;-73
2022/01/22 08:40:06;;;;;;;3.63;1.13;;;7.00;99.90;;;;;;4900841;29;20083;-72
2022/01/22 08:42:32;;;;;;;5.18;0.98;;;6.40;99.90;;;;;;4903267;29;20476;-71
2022/01/22 08:44:58;;;;;;;4.65;1.00;;;6.20;99.90;;;;;;4903202;29;20095;-72
2022/01/22 08:47:23;;;;;;;2.70;0.70;;;6.80;99.90;;;;;;4902778;29;20384;-72
2022/01/22 08:49:49;;;;;;;5.85;1.20;;;6.50;99.90;;;;;;4919031;29;20062;-71
2022/01/22 08:52:16;;;;;;;7.28;0.70;;;7.00;99.90;;;;;;4919705;29;20192;-71
2022/01/22 08:54:44;;;;;;;2.22;0.60;;;7.10;99.90;;;;;;4903124;29;20043;-68
2022/01/22 08:57:11;;;;;;;6.63;0.90;;;6.30;99.90;;;;;;4919185;29;20065;-68
2022/01/22 08:59:37;;;;;;;3.03;0.73;;;6.70;99.90;;;;;;4902966;29;20060;-69
2022/01/22 09:02:04;;;;;;;2.92;0.70;;;6.80;99.90;;;;;;4919354;29;20040;-72
2022/01/22 09:04:31;;;;;;;3.75;1.20;;;6.90;99.90;;;;;;4919098;29;20066;-72
2022/01/22 09:06:57;;;;;;;4.38;0.90;;;6.70;99.90;;;;;;4902776;29;20453;-72
2022/01/22 09:09:25;;;;;;;4.70;1.00;;;6.90;99.90;;;;;;4919253;29;20377;-72
2022/01/22 09:11:51;;;;;;;2.47;0.50;;;6.80;99.90;;;;;;4919464;29;20116;-74
2022/01/22 09:14:17;;;;;;;2.60;0.60;;;7.10;99.90;;;;;;4919326;29;20055;-73
2022/01/22 09:16:44;;;;;;;4.95;0.70;;;6.80;99.90;;;;;;4919241;29;20047;-73
2022/01/22 09:19:12;;;;;;;5.15;0.80;;;6.90;99.90;;;;;;4918100;29;20044;-72
2022/01/22 09:21:46;;;;;;;3.03;0.70;;;6.80;99.90;;;;;;4902691;29;20095;-73
2022/01/22 09:24:17;;;;;;;4.32;0.60;;;6.60;99.90;;;;;;4919096;29;20040;-73
2022/01/22 09:26:44;;;;;;;5.50;0.50;;;6.70;99.90;;;;;;4918778;29;20054;-73
2022/01/22 09:29:10;;;;;;;3.70;0.40;;;6.90;99.90;;;;;;4900834;29;20399;-73
2022/01/22 09:31:35;;;;;;;4.82;0.55;;;6.40;99.90;;;;;;4886990;29;20052;-73
2022/01/22 09:34:02;;;;;;;2.95;0.50;;;6.90;99.90;;;;;;4902733;29;20047;-73
2022/01/22 09:36:30;;;;;;;3.25;0.73;;;7.10;99.90;;;;;;4902397;29;20048;-72
2022/01/22 09:38:56;;;;;;;4.47;1.38;;;6.60;99.90;;;;;;4902413;29;20048;-71
2022/01/22 09:41:25;;;;;;;2.47;0.50;;;7.30;99.90;;;;;;4919247;29;20102;-70
2022/01/22 09:43:53;;;;;;;3.83;0.60;;;6.90;99.90;;;;;;4902090;29;20048;-70
2022/01/22 09:46:21;;;;;;;3.28;0.43;;;6.80;99.90;;;;;;4917998;29;20048;-69
2022/01/22 09:48:48;;;;;;;1.52;0.40;;;6.90;99.90;;;;;;4917651;29;20052;-69
2022/01/22 09:51:14;;;;;;;1.20;0.40;;;6.70;99.90;;;;;;4902132;29;20492;-69
2022/01/22 09:53:41;;;;;;;2.75;0.45;;;6.70;99.90;;;;;;4918612;29;20079;-71
2022/01/22 09:56:07;;;;;;;0.88;0.35;;;7.00;99.90;;;;;;4901329;29;20048;-69
2022/01/22 09:58:33;;;;;;;0.93;0.30;;;6.60;99.90;;;;;;4902017;29;20050;-68
2022/01/22 10:01:20;;;;;;;0.95;0.30;;;6.80;99.90;;;;;;4918455;29;20084;-72
2022/01/22 10:03:47;;;;;;;2.38;0.90;;;6.60;99.90;;;;;;4928689;29;20399;-72
2022/01/22 10:06:15;;;;;;;4.80;1.00;;;6.80;99.90;;;;;;4910527;29;20491;-72
2022/01/22 10:08:41;;;;;;;1.70;0.50;;;7.20;99.90;;;;;;4926654;29;20091;-72
2022/01/22 10:11:22;;;;;;;4.38;1.60;;;6.90;99.90;;;;;;4911351;29;20048;-75
2022/01/22 10:13:56;;;;;;;1.10;0.30;;;6.90;99.90;;;;;;4922723;29;20571;-74
2022/01/22 10:16:22;;;;;;;2.28;0.70;;;;;;;;;;4925726;29;20059;-71
2022/01/22 10:19:22;;;;;;;1.15;0.40;;;7.40;99.90;;;;;;4927736;29;20123;-72
2022/01/22 10:21:53;;;;;;;2.45;0.40;;;7.00;99.90;;;;;;4924010;29;20187;-72
2022/01/22 10:24:47;;;;;;;1.95;0.30;;;6.90;99.90;;;;;;4909687;29;20055;-71
2022/01/22 10:30:12;;;;;;;1.98;0.30;;;7.10;99.90;;;;;;4921192;29;20536;-73
2022/01/22 10:32:52;;;;;;;1.45;0.30;;;7.20;99.90;;;;;;4926263;29;20051;-73
2022/01/22 10:35:23;;;;;;;4.30;0.40;;;7.30;99.90;;;;;;4899590;29;20036;-73
2022/01/22 10:38:00;;;;;;;2.67;0.40;;;7.20;99.90;;;;;;4907072;29;20112;-72
2022/01/22 10:40:29;;;;;;;1.90;0.98;;;6.90;99.90;;;;;;4908402;29;20476;-72
2022/01/22 10:43:35;;;;;;;1.25;0.40;;;7.00;99.90;;;;;;4927099;29;20039;-73
2022/01/22 10:47:01;;;;;;;2.53;0.35;;;7.40;99.90;;;;;;4925328;29;20059;-72
2022/01/22 10:49:09;;;;;;;2.42;0.30;;;7.20;99.90;;;;;;4905962;29;20044;-73
2022/01/22 10:52:04;;;;;;;2.30;0.50;;;7.10;99.90;;;;;;4922646;29;20500;-72
2022/01/22 10:54:35;;;;;;;1.98;0.43;;;7.00;99.90;;;;;;4910493;29;20503;-73
2022/01/22 10:57:21;;;;;;;5.18;0.32;;;7.00;99.90;;;;;;4927247;29;20449;-73
2022/01/22 10:59:52;;;;;;;2.15;0.50;;;7.20;99.90;;;;;;4895571;29;20067;-72
2022/01/22 11:02:29;;;;;;;1.15;0.40;;;7.50;99.90;;;;;;4926990;29;20555;-73
2022/01/22 11:04:55;;;;;;;1.25;0.30;;;7.60;99.90;;;;;;4924064;29;20461;-71
2022/01/22 11:07:21;;;;;;;1.25;0.38;;;7.20;99.90;;;;;;4925671;29;20122;-72
2022/01/22 11:09:48;;;;;;;3.35;0.40;;;7.50;99.90;;;;;;4910786;29;20043;-72
2022/01/22 11:12:16;;;;;;;3.85;0.50;;;7.40;99.90;;;;;;4926702;29;20055;-71
2022/01/22 11:14:42;;;;;;;3.67;0.47;;;7.20;99.90;;;;;;4925705;29;20126;-71
2022/01/22 11:17:08;;;;;;;3.90;0.60;;;7.30;99.90;;;;;;4906158;29;20048;-71
2022/01/22 11:19:37;;;;;;;5.32;0.90;;;7.30;99.90;;;;;;4893699;29;20051;-72
2022/01/22 11:22:11;;;;;;;3.50;0.45;;;7.40;99.90;;;;;;4927370;29;20056;-71
2022/01/22 11:24:42;;;;;;;3.78;0.60;;;7.20;99.90;;;;;;4926482;29;20087;-72
2022/01/22 11:27:10;;;;;;;1.15;0.55;;;7.70;99.90;;;;;;4892551;29;20052;-72
2022/01/22 11:29:50;;;;;;;2.65;0.68;;;7.30;99.90;;;;;;4908874;29;20059;-73
2022/01/22 11:32:17;;;;;;;2.67;0.52;;;;;;;;;;4920710;29;20429;-75
2022/01/22 11:34:47;;;;;;;5.10;0.60;;;7.40;99.90;;;;;;4926981;29;20047;-73
2022/01/22 11:37:22;;;;;;;3.42;0.90;;;7.70;99.90;;;;;;4908950;29;20051;-72
2022/01/22 11:40:07;;;;;;;2.85;0.45;;;7.20;99.90;;;;;;4905972;29;20055;-72
2022/01/22 11:43:06;;;;;;;2.47;0.85;;;7.20;99.90;;;;;;4923038;29;20048;-75
2022/01/22 11:45:41;;;;;;;2.10;0.38;;;7.30;99.90;;;;;;4891465;29;20044;-75
2022/01/22 11:48:18;;;;;;;4.15;0.50;;;7.70;99.90;;;;;;4908250;29;20403;-74
2022/01/22 11:50:47;;;;;;;5.20;0.63;;;7.60;99.90;;;;;;4924760;29;20382;-75
2022/01/22 11:53:32;;;;;;;2.05;0.50;;;7.20;99.90;;;;;;4926917;29;20048;-75
2022/01/22 11:56:10;;;;;;;1.98;0.50;;;7.10;99.90;;;;;;4918646;29;20048;-76
2022/01/22 11:59:06;;;;;;;3.25;0.43;;;7.00;99.90;;;;;;4925956;29;20508;-75
2022/01/22 12:01:41;;;;;;;1.83;0.40;;;7.30;99.90;;;;;;4913965;29;20056;-76
2022/01/22 12:04:09;;;;;;;2.13;0.45;;;7.50;99.90;;;;;;4913722;29;20526;-76
2022/01/22 12:06:58;;;;;;;2.47;0.60;;;6.90;99.90;;;;;;4929803;29;20134;-76
2022/01/22 12:09:26;;;;;;;2.67;0.68;;;7.20;99.90;;;;;;4912638;29;20043;-74
2022/01/22 12:14:49;;;;;;;3.33;0.50;;;7.10;99.90;;;;;;4912203;29;20066;-75
2022/01/22 12:17:28;;;;;;;1.75;0.50;;;7.10;99.90;;;;;;4909386;29;20048;-75
2022/01/22 12:22:33;;;;;;;4.72;0.60;;;7.50;99.90;;;;;;4927947;29;20050;-76
2022/01/22 12:25:08;;;;;;;3.45;0.82;;;7.60;99.90;;;;;;4926016;29;20051;-76
2022/01/22 12:27:45;;;;;;;5.30;1.40;;;7.40;99.90;;;;;;4907981;29;20088;-75
2022/01/22 12:30:11;;;;;;;7.80;1.45;;;7.20;99.90;;;;;;4925261;29;20412;-76
2022/01/22 12:32:45;;;;;;;5.18;1.10;;;7.20;99.90;;;;;;4912566;29;20059;-73
2022/01/22 12:35:17;;;;;;;5.30;0.90;;;7.10;99.90;;;;;;4925536;29;20052;-75
2022/01/22 12:37:49;;;;;;;7.28;1.90;;;7.10;99.90;;;;;;4928523;29;20090;-74
2022/01/22 12:40:28;;;;;;;7.55;1.50;;;7.50;99.90;;;;;;4910165;29;20051;-74
2022/01/22 12:43:04;;;;;;;5.20;1.63;;;7.60;99.90;;;;;;4926320;29;20059;-73
2022/01/22 12:45:30;;;;;;;2.50;0.85;;;7.40;99.90;;;;;;4911197;29;20083;-73
2022/01/22 12:47:56;;;;;;;4.05;0.85;;;7.00;99.90;;;;;;4919099;29;20052;-74
2022/01/22 12:50:28;;;;;;;2.67;0.70;;;6.90;99.90;;;;;;4913793;29;20056;-73
2022/01/22 12:52:54;;;;;;;3.28;0.63;;;7.20;99.90;;;;;;4912558;29;20526;-73
2022/01/22 12:55:28;;;;;;;3.08;0.70;;;7.00;99.90;;;;;;4897136;29;20052;-73
2022/01/22 12:57:55;;;;;;;4.38;0.80;;;6.90;99.90;;;;;;4896325;29;21164;-74
2022/01/22 13:00:21;;;;;;;3.22;0.73;;;7.20;99.90;;;;;;4912858;29;20098;-74
2022/01/22 13:02:56;;;;;;;4.90;0.90;;;7.60;99.90;;;;;;4895754;29;20044;-73
2022/01/22 13:05:23;;;;;;;3.25;0.77;;;6.90;99.90;;;;;;4894584;29;20787;-72
2022/01/22 13:07:56;;;;;;;4.78;0.90;;;7.40;99.90;;;;;;4894692;29;20488;-73
2022/01/22 13:10:36;;;;;;;5.05;0.88;;;7.30;99.90;;;;;;4894717;29;20052;-74
2022/01/22 13:13:03;;;;;;;5.72;1.00;;;7.40;99.90;;;;;;4894655;29;20044;-73
2022/01/22 13:15:30;;;;;;;4.72;1.05;;;7.30;99.90;;;;;;4894686;29;20076;-73
2022/01/22 13:18:01;;;;;;;3.85;1.00;;;6.90;99.90;;;;;;4893924;29;20051;-73
2022/01/22 13:20:32;;;;;;;4.97;1.10;;;6.90;99.90;;;;;;4895474;29;20048;-72
2022/01/22 13:23:01;;;;;;;3.83;1.23;;;7.80;99.90;;;;;;4896252;29;20411;-73
2022/01/22 13:25:27;;;;;;;8.90;1.27;;;7.30;99.90;;;;;;4896148;29;20365;-72
2022/01/22 13:28:04;;;;;;;7.45;2.05;;;7.30;99.90;;;;;;4911718;29;20555;-73
2022/01/22 13:30:36;;;;;;;4.03;1.10;;;7.00;99.90;;;;;;4909476;29;20131;-73
2022/01/22 13:49:46;;;;;;;5.35;1.42;;;7.50;99.90;;;;;;4909652;29;20048;-73
2022/01/22 13:52:16;;;;;;;4.40;1.50;;;7.10;99.90;;;;;;4924616;29;20058;-72
2022/01/22 13:54:48;;;;;;;6.15;1.58;;;7.00;99.90;;;;;;4927495;29;20055;-71
2022/01/22 13:57:19;;;;;;;7.03;1.92;;;7.00;99.90;;;;;;4924299;29;20048;-72
2022/01/22 13:59:48;;;;;;;7.68;2.00;;;7.30;99.90;;;;;;4926942;29;20083;-72
2022/01/22 14:04:55;;;;;;;;;;;6.80;99.90;;;;;;4926985;29;20058;-72
2022/01/22 14:07:35;;;;;;;6.80;1.95;;;7.00;99.90;;;;;;4927298;29;19945;-72
2022/01/22 14:10:06;;;;;;;7.85;2.10;;;7.20;99.90;;;;;;4909647;29;20048;-71
2022/01/22 14:13:26;;;;;;;9.73;2.22;;;6.90;99.90;;;;;;4924440;29;20099;-71
2022/01/22 14:15:41;;;;;;;7.03;2.35;;;6.90;99.90;;;;;;4917819;29;20103;-71
2022/01/22 14:18:15;;;;;;;7.63;2.70;;;6.80;99.90;;;;;;4928328;29;20048;-71
2022/01/22 14:20:44;;;;;;;9.32;3.05;;;6.90;99.90;;;;;;4911051;29;20130;-71
2022/01/22 14:23:17;;;;;;;8.18;2.45;;;6.90;99.90;;;;;;4924646;29;20091;-72
2022/01/22 14:26:01;;;;;;;;;;;6.90;99.90;;;;;;4895115;29;20062;-72
2022/01/22 14:29:11;;;;;;;7.00;2.38;;;7.00;99.90;;;;;;4926171;29;20013;-71
2022/01/22 14:31:41;;;;;;;5.55;2.38;;;6.80;99.90;;;;;;4879477;29;20071;-72
2022/01/22 14:34:12;;;;;;;6.35;1.55;;;7.00;99.90;;;;;;4872484;29;20688;-71
2022/01/22 14:36:49;;;;;;;7.95;1.70;;;8.20;99.90;;;;;;4893305;29;20088;-71
2022/01/22 14:44:51;;;;;;;5.40;1.00;;;6.90;99.90;;;;;;4927655;29;20051;-71
2022/01/22 14:47:22;;;;;;;4.80;1.30;;;7.00;99.90;;;;;;4926514;29;20099;-71
2022/01/22 14:49:50;;;;;;;4.40;1.17;;;6.90;99.90;;;;;;4925479;29;20465;-71
2022/01/22 14:52:21;;;;;;;5.03;1.20;;;7.10;99.90;;;;;;4926785;29;20043;-71
2022/01/22 14:54:49;;;;;;;5.03;1.10;;;6.80;99.90;;;;;;4927672;29;20086;-71
2022/01/22 14:57:20;;;;;;;5.80;1.55;;;7.10;99.90;;;;;;4916807;29;20063;-71
2022/01/22 14:59:46;;;;;;;5.63;1.00;;;7.20;99.90;;;;;;4909062;29;20056;-71
2022/01/22 15:02:12;;;;;;;4.65;1.08;;;6.90;99.90;;;;;;4927391;29;20065;-70
2022/01/22 15:04:39;;;;;;;10.65;1.85;;;6.90;99.90;;;;;;4909691;29;20059;-74
2022/01/22 15:07:09;;;;;;;6.07;1.10;;;7.10;99.90;;;;;;4925484;29;20504;-71
2022/01/22 15:09:36;;;;;;;5.82;0.98;;;6.80;99.90;;;;;;4903152;29;20102;-72
2022/01/22 15:12:02;;;;;;;4.72;0.98;;;6.90;99.90;;;;;;4910151;29;20051;-70
2022/01/22 15:14:29;;;;;;;7.07;1.00;;;7.00;99.90;;;;;;4893091;29;20052;-71
2022/01/22 15:17:26;;;;;;;5.40;0.80;;;6.90;99.90;;;;;;4910329;29;20134;-71